Time;durP1;ratioP1;P1;durP2;ratioP2;P2;SDS_P1;SDS_P2;PMS_P1;PMS_P2;Temp;Humidity;BMP_temperature;BMP_pressure;BME280_temperature;BME280_humidity;BME280_pressure;Samples;Min_cycle;Max_cycle;Signal;HPM_P1;HPM_P2
2022/03/30 00:00:13;;;;;;;25.00;15.27;;;4.00;99.90;;;;;;5016597;28;20038;-79
2022/03/30 00:02:39;;;;;;;23.85;13.60;;;4.00;99.90;;;;;;5016404;28;20078;-78
2022/03/30 00:05:05;;;;;;;31.85;15.45;;;4.00;99.90;;;;;;5000110;28;20504;-79
2022/03/30 00:07:32;;;;;;;27.45;14.68;;;4.00;99.90;;;;;;5016454;28;20435;-79
2022/03/30 00:09:58;;;;;;;28.77;15.82;;;4.00;99.90;;;;;;4999898;28;20045;-79
2022/03/30 00:12:24;;;;;;;29.00;15.68;;;4.00;99.90;;;;;;5000332;28;20033;-79
2022/03/30 00:14:51;;;;;;;29.50;15.20;;;4.00;99.90;;;;;;4999816;28;20038;-79
2022/03/30 00:17:17;;;;;;;24.65;15.52;;;4.00;99.90;;;;;;5015877;28;20056;-79
2022/03/30 00:19:43;;;;;;;27.17;15.48;;;3.90;99.90;;;;;;5016373;28;20455;-79
2022/03/30 00:22:09;;;;;;;27.08;15.13;;;3.90;99.90;;;;;;4999410;28;20091;-79
2022/03/30 00:24:36;;;;;;;32.50;17.17;;;3.80;99.90;;;;;;5015599;28;20037;-79
2022/03/30 00:27:02;;;;;;;29.92;16.98;;;3.80;99.90;;;;;;5015618;28;20048;-79
2022/03/30 00:29:28;;;;;;;26.23;15.48;;;3.80;99.90;;;;;;4998868;28;20163;-78
2022/03/30 00:31:54;;;;;;;36.08;16.58;;;3.70;99.90;;;;;;4999816;28;20566;-79
2022/03/30 00:34:19;;;;;;;27.55;14.63;;;3.70;99.90;;;;;;4999866;28;20080;-79
2022/03/30 00:36:45;;;;;;;25.90;14.68;;;3.60;99.90;;;;;;5012042;28;20337;-79
2022/03/30 00:39:10;;;;;;;32.80;15.75;;;3.60;99.90;;;;;;4999036;28;20118;-79
2022/03/30 00:41:36;;;;;;;30.80;15.63;;;3.50;99.90;;;;;;4999754;28;20048;-79
2022/03/30 00:44:12;;;;;;;27.30;14.73;;;3.50;99.90;;;;;;4999231;28;20663;-78
2022/03/30 00:46:38;;;;;;;26.30;14.48;;;3.50;99.90;;;;;;4999491;28;20044;-79
2022/03/30 00:49:04;;;;;;;25.70;14.98;;;3.40;99.90;;;;;;4999343;28;20044;-79
2022/03/30 00:51:31;;;;;;;26.65;15.30;;;3.40;99.90;;;;;;4999113;28;20037;-78
2022/03/30 00:53:57;;;;;;;32.20;15.75;;;3.40;99.90;;;;;;4998748;28;20076;-79
2022/03/30 00:56:24;;;;;;;26.23;15.25;;;3.30;99.90;;;;;;5015640;28;20080;-79
2022/03/30 00:58:50;;;;;;;32.65;15.07;;;3.30;99.90;;;;;;4999059;28;20073;-79
2022/03/30 01:01:16;;;;;;;29.83;16.05;;;3.30;99.90;;;;;;4999203;28;20380;-79
2022/03/30 01:03:41;;;;;;;29.75;15.30;;;3.30;99.90;;;;;;4998900;28;20164;-79
2022/03/30 01:06:07;;;;;;;29.88;15.82;;;3.30;99.90;;;;;;5015475;28;20045;-79
2022/03/30 01:08:32;;;;;;;30.50;15.68;;;3.20;99.90;;;;;;4999228;28;20045;-79
2022/03/30 01:11:00;;;;;;;30.38;15.70;;;3.20;99.90;;;;;;4999328;28;20036;-79
2022/03/30 01:13:26;;;;;;;29.92;16.77;;;3.20;99.90;;;;;;5015539;28;20042;-79
2022/03/30 01:15:52;;;;;;;31.80;16.38;;;3.20;99.90;;;;;;5015491;28;20057;-79
2022/03/30 01:18:17;;;;;;;33.05;17.15;;;3.20;99.90;;;;;;5015040;28;20026;-79
2022/03/30 01:20:48;;;;;;;29.63;17.45;;;3.20;99.90;;;;;;4998486;28;20135;-78
2022/03/30 01:23:13;;;;;;;31.48;17.63;;;3.20;99.90;;;;;;5015193;28;20495;-79
2022/03/30 01:25:39;;;;;;;37.08;18.90;;;3.20;99.90;;;;;;4999102;28;20124;-79
2022/03/30 01:28:04;;;;;;;35.97;17.95;;;3.20;99.90;;;;;;4998563;28;20045;-79
2022/03/30 01:33:14;;;;;;;35.28;17.33;;;3.20;99.90;;;;;;5014752;28;20057;-79
2022/03/30 01:35:41;;;;;;;37.88;18.98;;;3.20;99.90;;;;;;4998950;28;20041;-79
2022/03/30 01:38:06;;;;;;;39.35;19.02;;;3.30;99.90;;;;;;4998907;28;20365;-79
2022/03/30 01:40:32;;;;;;;34.85;17.45;;;3.30;99.90;;;;;;4998270;28;20045;-79
2022/03/30 01:42:58;;;;;;;38.63;17.77;;;3.30;99.90;;;;;;5014820;28;20045;-79
2022/03/30 01:45:24;;;;;;;33.40;16.65;;;3.30;99.90;;;;;;4998679;28;20034;-79
2022/03/30 01:47:55;;;;;;;36.67;16.50;;;3.30;99.90;;;;;;4998675;28;20095;-79
2022/03/30 01:50:22;;;;;;;32.42;17.15;;;3.40;99.90;;;;;;5015322;28;20144;-79
2022/03/30 01:52:47;;;;;;;35.70;17.60;;;3.30;99.90;;;;;;5014521;28;20080;-78
2022/03/30 01:55:14;;;;;;;36.03;18.50;;;3.30;99.90;;;;;;5014808;28;20465;-79
2022/03/30 01:57:40;;;;;;;33.80;17.80;;;3.30;99.90;;;;;;5014187;28;20037;-78
2022/03/30 02:00:06;;;;;;;29.80;17.27;;;3.40;99.90;;;;;;5014880;28;20067;-79
2022/03/30 02:02:32;;;;;;;32.28;16.90;;;3.40;99.90;;;;;;4998318;28;20041;-79
2022/03/30 02:04:57;;;;;;;33.60;17.45;;;3.40;99.90;;;;;;5014739;28;20033;-79
2022/03/30 02:07:23;;;;;;;31.65;17.70;;;3.50;99.90;;;;;;5015045;28;20045;-79
2022/03/30 02:09:48;;;;;;;35.33;17.25;;;3.40;99.90;;;;;;5015346;28;20132;-78
2022/03/30 02:12:14;;;;;;;38.05;19.05;;;3.50;99.90;;;;;;5015368;28;20052;-79
2022/03/30 02:14:41;;;;;;;33.35;17.77;;;3.50;99.90;;;;;;5031151;28;20041;-79
2022/03/30 02:17:07;;;;;;;34.20;17.50;;;3.50;99.90;;;;;;5014428;28;20052;-78
2022/03/30 02:19:32;;;;;;;36.33;18.42;;;3.50;99.90;;;;;;5014881;28;20033;-78
2022/03/30 02:21:58;;;;;;;33.05;18.33;;;3.50;99.90;;;;;;4998680;28;20583;-79
2022/03/30 02:24:24;;;;;;;37.13;18.35;;;3.60;99.90;;;;;;5014664;28;20043;-79
2022/03/30 02:26:51;;;;;;;39.72;22.15;;;3.60;99.90;;;;;;5015097;28;20081;-79
2022/03/30 02:29:16;;;;;;;40.85;20.23;;;3.70;99.90;;;;;;4998741;28;20386;-79
2022/03/30 02:31:43;;;;;;;43.55;21.65;;;3.60;99.90;;;;;;4999258;28;20037;-79
2022/03/30 02:34:09;;;;;;;40.58;21.70;;;3.70;99.90;;;;;;5015508;28;20029;-79
2022/03/30 02:36:35;;;;;;;40.95;20.25;;;3.70;99.90;;;;;;5014104;28;20069;-79
2022/03/30 02:39:02;;;;;;;36.88;20.15;;;3.70;99.90;;;;;;4997334;28;20526;-78
2022/03/30 02:41:27;;;;;;;34.78;19.02;;;3.80;99.90;;;;;;5014089;28;20120;-79
2022/03/30 02:43:53;;;;;;;36.28;20.05;;;3.70;99.90;;;;;;4997773;28;20103;-79
2022/03/30 02:46:18;;;;;;;40.15;21.25;;;3.70;99.90;;;;;;5013855;28;20042;-79
2022/03/30 02:48:44;;;;;;;35.17;19.90;;;3.70;99.90;;;;;;4997560;28;20042;-79
2022/03/30 02:51:10;;;;;;;36.63;19.65;;;3.60;99.90;;;;;;4997384;28;20042;-79
2022/03/30 02:53:36;;;;;;;40.97;20.48;;;3.60;99.90;;;;;;4997672;28;20128;-79
2022/03/30 02:56:03;;;;;;;35.55;19.23;;;3.50;99.90;;;;;;4997485;28;20506;-79
2022/03/30 02:58:29;;;;;;;35.53;18.80;;;3.40;99.90;;;;;;4997622;28;20526;-79
2022/03/30 03:00:55;;;;;;;34.20;19.13;;;3.40;99.90;;;;;;4997525;28;20041;-79
2022/03/30 03:03:21;;;;;;;34.10;17.55;;;3.30;99.90;;;;;;5013269;28;20490;-79
2022/03/30 03:05:47;;;;;;;37.75;18.85;;;3.30;99.90;;;;;;5013511;28;20034;-79
2022/03/30 03:08:13;;;;;;;40.65;21.23;;;3.30;99.90;;;;;;4998845;28;20129;-79
2022/03/30 03:10:43;;;;;;;35.85;20.92;;;3.30;99.90;;;;;;5017407;28;20087;-79
2022/03/30 03:13:11;;;;;;;40.42;20.45;;;3.30;99.90;;;;;;5000831;28;20041;-79
2022/03/30 03:15:37;;;;;;;38.50;20.48;;;3.40;99.90;;;;;;5017130;28;20496;-78
2022/03/30 03:18:04;;;;;;;39.83;21.23;;;3.40;99.90;;;;;;5000440;28;20037;-79
2022/03/30 03:20:30;;;;;;;41.65;20.48;;;3.50;99.90;;;;;;5000995;28;20546;-79
2022/03/30 03:22:57;;;;;;;37.08;20.35;;;3.50;99.90;;;;;;5017042;28;20080;-79
2022/03/30 03:25:23;;;;;;;38.85;22.23;;;3.60;99.90;;;;;;5000893;28;20132;-79
2022/03/30 03:27:49;;;;;;;41.78;20.75;;;3.60;99.90;;;;;;5016886;28;20228;-78
2022/03/30 03:30:15;;;;;;;39.75;20.73;;;3.60;99.90;;;;;;5016525;28;20041;-79
2022/03/30 03:32:41;;;;;;;39.58;20.83;;;3.70;99.90;;;;;;5000669;28;20080;-79
2022/03/30 03:35:12;;;;;;;42.88;22.35;;;3.70;99.90;;;;;;5016358;28;20063;-79
2022/03/30 03:37:39;;;;;;;35.42;20.05;;;3.80;99.90;;;;;;5000576;28;20050;-79
2022/03/30 03:40:06;;;;;;;38.45;20.95;;;3.80;99.90;;;;;;5001067;28;20447;-78
2022/03/30 03:42:33;;;;;;;36.92;19.02;;;3.80;99.90;;;;;;5016503;28;20040;-79
2022/03/30 03:44:58;;;;;;;40.05;22.05;;;3.80;99.90;;;;;;5016905;28;20521;-78
2022/03/30 03:47:24;;;;;;;42.35;20.88;;;3.90;99.90;;;;;;5016464;28;20041;-78
2022/03/30 03:49:50;;;;;;;39.55;19.95;;;3.90;99.90;;;;;;5017063;28;20052;-79
2022/03/30 03:52:15;;;;;;;38.58;20.35;;;3.90;99.90;;;;;;5016686;28;20045;-79
2022/03/30 03:54:41;;;;;;;36.47;20.02;;;4.00;99.90;;;;;;5000703;28;20091;-79
2022/03/30 03:57:07;;;;;;;45.72;20.73;;;4.10;99.90;;;;;;5000252;28;20053;-79
2022/03/30 03:59:33;;;;;;;37.75;21.05;;;4.10;99.90;;;;;;5016555;28;20049;-79
2022/03/30 04:01:59;;;;;;;37.17;21.00;;;4.20;99.90;;;;;;5000041;28;20057;-79
2022/03/30 04:04:25;;;;;;;39.60;22.35;;;4.20;99.90;;;;;;5015843;28;20045;-78
2022/03/30 04:06:50;;;;;;;44.85;21.55;;;4.20;99.90;;;;;;5000327;28;20052;-79
2022/03/30 04:09:16;;;;;;;42.92;21.75;;;4.20;99.90;;;;;;5000061;28;20507;-79
2022/03/30 04:11:42;;;;;;;40.05;21.85;;;4.30;99.90;;;;;;5032879;28;20037;-78
2022/03/30 04:14:08;;;;;;;34.72;19.67;;;4.30;99.90;;;;;;4999711;28;20120;-79
2022/03/30 04:16:33;;;;;;;39.10;20.58;;;4.30;99.90;;;;;;5000214;28;20559;-79
2022/03/30 04:18:59;;;;;;;41.30;20.58;;;4.40;99.90;;;;;;4999447;28;20048;-79
2022/03/30 04:21:24;;;;;;;39.58;19.85;;;4.40;99.90;;;;;;5016180;28;20069;-79
2022/03/30 04:23:50;;;;;;;40.58;22.50;;;4.40;99.90;;;;;;5016525;28;20124;-79
2022/03/30 04:26:15;;;;;;;33.08;19.25;;;4.50;99.90;;;;;;4999901;28;20040;-79
2022/03/30 04:28:41;;;;;;;39.47;20.25;;;4.50;99.90;;;;;;5032168;28;20052;-79
2022/03/30 04:31:16;;;;;;;36.63;18.65;;;4.50;99.90;;;;;;5015727;28;20044;-79
2022/03/30 04:33:41;;;;;;;34.08;18.77;;;4.50;99.90;;;;;;4999535;28;20041;-79
2022/03/30 04:36:07;;;;;;;33.65;18.85;;;4.60;99.90;;;;;;4999528;28;20411;-79
2022/03/30 04:38:34;;;;;;;35.97;18.13;;;4.60;99.90;;;;;;5015690;28;20567;-79
2022/03/30 04:40:59;;;;;;;33.45;18.67;;;4.60;99.90;;;;;;5015273;28;20545;-79
2022/03/30 04:43:27;;;;;;;35.05;19.42;;;4.70;99.90;;;;;;4999540;28;20034;-79
2022/03/30 04:45:52;;;;;;;35.05;19.20;;;4.70;99.90;;;;;;4999638;28;20046;-79
2022/03/30 04:48:18;;;;;;;35.60;18.40;;;4.70;99.90;;;;;;4999755;28;20060;-79
2022/03/30 04:50:43;;;;;;;32.13;17.65;;;4.70;99.90;;;;;;5016239;28;20064;-79
2022/03/30 04:53:09;;;;;;;36.15;17.83;;;4.80;99.90;;;;;;4999119;28;20510;-79
2022/03/30 04:55:36;;;;;;;35.35;18.73;;;4.80;99.90;;;;;;4999122;28;20045;-79
2022/03/30 04:58:02;;;;;;;36.53;17.60;;;4.80;99.90;;;;;;4999543;28;20484;-79
2022/03/30 05:00:28;;;;;;;32.92;17.75;;;4.80;99.90;;;;;;4999589;28;20037;-79
2022/03/30 05:02:53;;;;;;;33.00;18.23;;;4.80;99.90;;;;;;5015336;28;20037;-79
2022/03/30 05:05:19;;;;;;;30.60;16.85;;;4.80;99.90;;;;;;5015701;28;20042;-78
2022/03/30 05:07:44;;;;;;;32.83;17.95;;;4.80;99.90;;;;;;4999207;28;20037;-79
2022/03/30 05:10:12;;;;;;;34.53;16.83;;;4.80;99.90;;;;;;4998758;28;20043;-79
2022/03/30 05:12:39;;;;;;;30.33;17.17;;;4.80;99.90;;;;;;5015551;28;20514;-79
2022/03/30 05:15:05;;;;;;;33.38;17.30;;;4.90;99.90;;;;;;4999154;28;20033;-79
2022/03/30 05:17:31;;;;;;;37.78;17.35;;;4.80;99.90;;;;;;4998834;28;20076;-80
2022/03/30 05:19:56;;;;;;;29.77;16.83;;;4.90;99.90;;;;;;5015549;28;20069;-79
2022/03/30 05:22:22;;;;;;;36.25;17.70;;;4.80;99.90;;;;;;4999329;28;20045;-79
2022/03/30 05:24:47;;;;;;;31.00;16.65;;;4.90;99.90;;;;;;4999093;28;20044;-78
2022/03/30 05:27:13;;;;;;;27.70;14.93;;;4.80;99.90;;;;;;5015583;28;20053;-79
2022/03/30 05:29:38;;;;;;;29.75;16.52;;;4.80;99.90;;;;;;5017906;28;20565;-80
2022/03/30 05:32:05;;;;;;;33.35;16.65;;;4.90;99.90;;;;;;5017834;28;20037;-80
2022/03/30 05:34:30;;;;;;;32.85;16.35;;;4.80;99.90;;;;;;5017979;28;20041;-80
2022/03/30 05:36:58;;;;;;;30.63;16.15;;;4.90;99.90;;;;;;5017451;28;20047;-80
2022/03/30 05:39:24;;;;;;;34.00;16.70;;;4.90;99.90;;;;;;5000727;28;20044;-80
2022/03/30 05:41:50;;;;;;;26.73;16.08;;;4.90;99.90;;;;;;5001982;28;20512;-79
2022/03/30 05:44:15;;;;;;;33.08;16.45;;;5.00;99.90;;;;;;5001454;28;20037;-80
2022/03/30 05:46:41;;;;;;;28.10;16.17;;;5.00;99.90;;;;;;5001794;28;20041;-80
2022/03/30 05:49:07;;;;;;;28.75;15.63;;;5.00;99.90;;;;;;5002349;28;20049;-80
2022/03/30 05:51:32;;;;;;;26.45;15.55;;;5.00;99.90;;;;;;5003311;28;20044;-80
2022/03/30 05:53:58;;;;;;;28.25;14.18;;;5.00;99.90;;;;;;4991912;28;20065;-80
2022/03/30 05:57:00;;;;;;;24.08;14.57;;;5.00;99.90;;;;;;5002090;28;20046;-79
2022/03/30 05:59:11;;;;;;;24.55;13.15;;;5.10;99.90;;;;;;5019063;28;20651;-80
2022/03/30 06:01:37;;;;;;;20.63;12.02;;;5.10;99.90;;;;;;5002838;28;20067;-80
2022/03/30 06:04:03;;;;;;;17.40;10.45;;;5.10;99.90;;;;;;5015237;28;20508;-79
2022/03/30 06:06:28;;;;;;;25.65;10.65;;;5.10;99.90;;;;;;4999286;28;20041;-76
2022/03/30 06:08:54;;;;;;;15.68;9.10;;;5.20;99.90;;;;;;5014850;28;20041;-79
2022/03/30 06:11:19;;;;;;;17.73;8.48;;;5.20;99.90;;;;;;5010519;28;20095;-77
2022/03/30 06:13:45;;;;;;;13.50;7.78;;;5.20;99.90;;;;;;5010930;28;20042;-76
2022/03/30 06:16:13;;;;;;;13.68;7.43;;;5.30;99.90;;;;;;5005030;28;20038;-76
2022/03/30 06:18:39;;;;;;;10.43;5.90;;;5.30;99.90;;;;;;4993290;28;20112;-76
2022/03/30 06:21:05;;;;;;;11.23;5.45;;;5.40;99.90;;;;;;5004169;28;20068;-76
2022/03/30 06:23:31;;;;;;;9.23;6.53;;;5.40;99.90;;;;;;5003348;28;20073;-76
2022/03/30 06:25:56;;;;;;;11.88;5.13;;;5.40;99.90;;;;;;5002413;28;20095;-77
2022/03/30 06:28:24;;;;;;;8.55;4.93;;;5.40;99.90;;;;;;4975813;28;1004751;-76
2022/03/30 06:30:50;;;;;;;7.93;4.70;;;5.50;99.90;;;;;;4993848;28;20052;-76
2022/03/30 06:33:15;;;;;;;8.73;4.82;;;5.60;99.90;;;;;;4993510;28;20046;-77
2022/03/30 06:35:41;;;;;;;12.65;4.60;;;5.60;99.90;;;;;;5014400;28;20508;-76
2022/03/30 06:38:07;;;;;;;6.85;3.63;;;5.60;99.90;;;;;;5010146;28;20038;-76
2022/03/30 06:40:33;;;;;;;10.30;3.72;;;5.70;99.90;;;;;;5029399;28;20045;-77
2022/03/30 06:43:00;;;;;;;6.78;3.92;;;5.70;99.90;;;;;;4997945;28;20045;-77
2022/03/30 06:45:26;;;;;;;5.43;3.30;;;5.80;99.90;;;;;;5012132;28;20488;-77
2022/03/30 06:47:52;;;;;;;6.32;3.13;;;5.70;99.90;;;;;;4992719;28;20049;-75
2022/03/30 06:50:19;;;;;;;5.03;2.92;;;5.70;99.90;;;;;;5011232;28;20037;-76
2022/03/30 06:52:45;;;;;;;5.30;2.90;;;5.70;99.90;;;;;;5007765;28;20508;-77
2022/03/30 06:55:12;;;;;;;5.10;2.72;;;5.70;99.90;;;;;;5007768;28;20556;-76
2022/03/30 06:57:38;;;;;;;3.22;1.95;;;5.80;99.90;;;;;;5014958;28;20077;-76
2022/03/30 07:00:05;;;;;;;3.13;1.70;;;5.90;99.90;;;;;;5011399;28;20080;-76
2022/03/30 07:02:31;;;;;;;1.77;1.15;;;6.00;99.90;;;;;;5012776;28;20049;-76
2022/03/30 07:04:57;;;;;;;2.70;1.38;;;6.00;99.90;;;;;;5028963;28;20469;-76
2022/03/30 07:10:16;;;;;;;1.50;1.02;;;6.10;99.90;;;;;;5012173;28;20053;-76
2022/03/30 07:12:43;;;;;;;3.28;1.60;;;6.20;99.90;;;;;;5011996;28;20045;-76
2022/03/30 07:15:08;;;;;;;2.60;1.38;;;6.20;99.90;;;;;;5012172;28;20042;-76
2022/03/30 07:17:41;;;;;;;3.97;1.80;;;6.30;99.90;;;;;;5010406;28;20038;-76
2022/03/30 07:20:10;;;;;;;3.45;1.70;;;6.30;99.90;;;;;;5025187;28;20041;-78
2022/03/30 07:22:36;;;;;;;4.18;1.88;;;6.40;99.90;;;;;;5006745;28;20053;-76
2022/03/30 07:25:01;;;;;;;5.13;2.22;;;6.50;99.90;;;;;;5009007;28;20038;-76
2022/03/30 07:27:27;;;;;;;4.00;2.67;;;6.50;99.90;;;;;;5012278;28;20041;-76
2022/03/30 07:29:52;;;;;;;3.15;2.40;;;6.50;99.90;;;;;;5010481;28;20108;-76
2022/03/30 07:32:19;;;;;;;3.67;2.70;;;6.60;99.90;;;;;;5006802;28;20037;-76
2022/03/30 07:34:45;;;;;;;3.53;2.50;;;6.70;99.90;;;;;;4994465;28;20140;-77
2022/03/30 07:37:11;;;;;;;5.05;2.60;;;6.60;99.90;;;;;;5008187;28;20132;-76
2022/03/30 07:39:36;;;;;;;4.60;2.80;;;6.80;99.90;;;;;;5006992;28;20132;-77
2022/03/30 07:42:02;;;;;;;3.35;2.25;;;6.80;99.90;;;;;;5012863;28;20124;-77
2022/03/30 07:44:28;;;;;;;3.70;2.70;;;6.90;99.90;;;;;;5010797;28;20529;-77
2022/03/30 07:46:53;;;;;;;3.78;2.72;;;6.90;99.90;;;;;;4998887;28;20077;-77
2022/03/30 07:49:19;;;;;;;3.65;2.42;;;7.00;99.90;;;;;;5014837;28;20080;-76
2022/03/30 07:51:44;;;;;;;4.50;3.00;;;6.90;99.90;;;;;;5013693;28;20045;-76
2022/03/30 07:54:10;;;;;;;3.70;2.45;;;7.00;99.90;;;;;;5013164;28;20068;-76
2022/03/30 07:56:35;;;;;;;4.00;2.80;;;7.00;99.90;;;;;;4998198;28;20060;-76
2022/03/30 07:59:01;;;;;;;3.63;3.00;;;7.00;99.90;;;;;;5013043;28;20041;-77
2022/03/30 08:01:27;;;;;;;3.45;2.60;;;7.10;99.90;;;;;;5011368;28;20045;-77
2022/03/30 08:03:53;;;;;;;3.67;2.40;;;7.10;99.90;;;;;;5012915;28;20384;-77
2022/03/30 08:06:18;;;;;;;4.18;2.70;;;7.10;99.90;;;;;;5014978;28;20052;-76
2022/03/30 08:08:44;;;;;;;3.67;2.65;;;7.00;99.90;;;;;;5014862;28;20041;-76
2022/03/30 08:11:09;;;;;;;2.35;2.10;;;7.00;99.90;;;;;;5014139;28;20037;-77
2022/03/30 08:13:36;;;;;;;3.55;2.30;;;7.10;99.90;;;;;;5014750;28;20041;-77
2022/03/30 08:16:02;;;;;;;4.03;2.63;;;7.10;99.90;;;;;;4998417;28;20129;-76
2022/03/30 08:18:28;;;;;;;4.50;3.25;;;7.20;99.90;;;;;;5014575;28;20044;-75
2022/03/30 08:23:38;;;;;;;2.80;2.35;;;7.30;99.90;;;;;;5002556;28;20052;-77
2022/03/30 08:26:03;;;;;;;3.30;2.40;;;7.30;99.90;;;;;;5013446;28;20037;-77
2022/03/30 08:28:29;;;;;;;2.85;2.10;;;7.40;99.90;;;;;;5012868;28;20037;-76
2022/03/30 08:30:55;;;;;;;4.30;2.50;;;7.50;99.90;;;;;;5011165;28;20500;-77
2022/03/30 08:33:23;;;;;;;3.30;2.13;;;7.40;99.90;;;;;;5011333;28;20049;-77
2022/03/30 08:35:50;;;;;;;2.55;1.50;;;7.50;99.90;;;;;;5011653;28;20054;-77
2022/03/30 08:38:16;;;;;;;4.10;2.20;;;7.50;99.90;;;;;;5004938;28;20429;-77
2022/03/30 08:40:42;;;;;;;2.30;1.70;;;7.50;99.90;;;;;;4994720;28;20040;-77
2022/03/30 08:43:07;;;;;;;2.60;1.92;;;7.60;99.90;;;;;;5009831;28;20038;-76
2022/03/30 08:45:33;;;;;;;3.42;2.20;;;7.70;99.90;;;;;;4989357;28;20041;-77
2022/03/30 08:48:01;;;;;;;4.38;2.08;;;7.80;99.90;;;;;;4999544;28;20046;-77
2022/03/30 08:50:26;;;;;;;2.47;1.55;;;7.80;99.90;;;;;;5011981;28;20045;-77
2022/03/30 08:52:55;;;;;;;2.38;1.70;;;8.00;99.90;;;;;;4997400;28;20033;-77
2022/03/30 08:55:21;;;;;;;2.15;1.50;;;8.10;99.90;;;;;;4994860;28;20033;-77
2022/03/30 08:57:47;;;;;;;2.33;1.58;;;8.30;99.90;;;;;;5001298;28;20045;-77
2022/03/30 09:00:16;;;;;;;2.00;1.77;;;8.50;99.90;;;;;;4991774;28;20044;-77
2022/03/30 09:02:49;;;;;;;2.63;1.92;;;8.60;99.90;;;;;;5012107;28;20108;-77
2022/03/30 09:05:23;;;;;;;3.53;1.90;;;8.60;99.90;;;;;;5002979;28;20052;-77
2022/03/30 09:08:13;;;;;;;3.17;1.90;;;8.50;99.90;;;;;;5011618;28;20095;-77
2022/03/30 09:10:42;;;;;;;2.13;1.55;;;8.50;99.90;;;;;;5018972;28;20050;-77
2022/03/30 09:13:07;;;;;;;7.13;5.40;;;8.50;99.90;;;;;;4993795;28;20045;-77
2022/03/30 09:15:34;;;;;;;6.68;4.30;;;8.50;99.90;;;;;;4993615;28;20048;-77
2022/03/30 09:18:02;;;;;;;5.18;3.40;;;8.20;99.90;;;;;;5013647;28;20049;-77
2022/03/30 09:20:28;;;;;;;7.25;3.33;;;8.10;99.90;;;;;;5013921;28;20373;-77
2022/03/30 09:22:56;;;;;;;4.85;2.53;;;8.20;99.90;;;;;;5014037;28;20120;-76
2022/03/30 09:25:30;;;;;;;4.70;2.40;;;8.20;99.90;;;;;;5006425;28;20041;-77
2022/03/30 09:27:58;;;;;;;6.43;3.00;;;8.30;99.90;;;;;;5013476;28;20070;-77
2022/03/30 09:30:26;;;;;;;4.95;3.25;;;8.30;99.90;;;;;;5011161;28;20041;-77
2022/03/30 09:32:54;;;;;;;3.45;3.00;;;8.40;99.90;;;;;;4988361;28;20045;-77
2022/03/30 09:35:25;;;;;;;3.90;3.13;;;8.30;99.90;;;;;;5000834;28;20041;-77
2022/03/30 09:38:00;;;;;;;4.85;3.00;;;8.30;99.90;;;;;;4987440;28;20128;-76
2022/03/30 09:40:37;;;;;;;4.18;2.95;;;8.30;99.90;;;;;;5007029;28;20211;-76
2022/03/30 09:43:20;;;;;;;4.95;3.08;;;8.40;99.90;;;;;;5005161;28;20049;-76
2022/03/30 09:45:46;;;;;;;4.57;3.30;;;8.40;99.90;;;;;;5006544;28;20124;-76
2022/03/30 09:48:23;;;;;;;3.72;2.90;;;8.40;99.90;;;;;;5003774;28;20048;-76
2022/03/30 09:50:51;;;;;;;5.57;2.97;;;8.50;99.90;;;;;;5004903;28;20117;-76
2022/03/30 09:53:18;;;;;;;4.15;2.58;;;8.70;99.90;;;;;;4988924;28;20034;-75
2022/03/30 09:56:03;;;;;;;4.70;2.50;;;9.00;99.90;;;;;;4993336;28;20399;-76
2022/03/30 09:58:34;;;;;;;4.70;2.70;;;9.40;97.10;;;;;;5009055;28;20043;-75
2022/03/30 10:01:23;;;;;;;3.53;2.63;;;9.40;97.90;;;;;;5000692;28;20116;-76
2022/03/30 10:04:15;;;;;;;3.33;2.35;;;9.60;96.20;;;;;;4987005;28;20531;-76
2022/03/30 10:06:41;;;;;;;4.05;2.10;;;9.80;94.00;;;;;;5016526;28;20152;-76
2022/03/30 10:09:06;;;;;;;2.88;2.05;;;9.90;92.30;;;;;;5005740;28;20495;-76
2022/03/30 10:11:32;;;;;;;3.47;2.22;;;10.10;93.10;;;;;;5005360;28;20151;-76
2022/03/30 10:14:00;;;;;;;6.75;4.20;;;10.30;91.50;;;;;;5004842;28;20464;-76
2022/03/30 10:16:27;;;;;;;5.07;2.70;;;10.20;95.60;;;;;;5008041;28;20633;-76
2022/03/30 10:18:53;;;;;;;5.53;2.42;;;10.40;96.10;;;;;;5011078;28;20561;-76
2022/03/30 10:21:36;;;;;;;4.60;1.70;;;10.60;94.80;;;;;;4993444;28;20492;-76
2022/03/30 10:24:24;;;;;;;3.63;1.88;;;10.80;89.20;;;;;;5001464;28;20133;-76
2022/03/30 10:27:02;;;;;;;2.33;1.75;;;10.90;85.50;;;;;;5016644;28;20041;-76
2022/03/30 10:29:30;;;;;;;3.60;2.00;;;10.70;81.80;;;;;;5007046;28;20404;-76
2022/03/30 10:32:10;;;;;;;3.33;2.03;;;10.30;92.00;;;;;;5007427;28;20033;-76
2022/03/30 10:35:00;;;;;;;3.33;2.00;;;10.10;91.60;;;;;;5016246;28;20041;-76
2022/03/30 10:37:43;;;;;;;3.83;1.90;;;10.00;92.40;;;;;;5014979;28;20052;-76
2022/03/30 10:40:17;;;;;;;;;;;9.90;91.90;;;;;;5012928;28;20387;-76
2022/03/30 10:42:46;;;;;;;;;;;9.70;93.30;;;;;;5008917;28;20303;-75
2022/03/30 10:45:23;;;;;;;5.38;3.10;;;9.80;93.30;;;;;;5014098;28;19917;-76
2022/03/30 10:48:10;;;;;;;6.68;3.28;;;9.60;95.00;;;;;;5013427;28;20092;-78
2022/03/30 10:50:40;;;;;;;4.90;3.97;;;9.60;94.40;;;;;;5009873;28;20196;-76
2022/03/30 10:53:33;;;;;;;5.47;4.10;;;9.50;96.00;;;;;;4996974;28;20048;-75
2022/03/30 10:56:12;;;;;;;6.30;3.97;;;9.50;97.90;;;;;;5012469;28;20041;-76
2022/03/30 10:58:55;;;;;;;5.80;4.40;;;9.80;95.70;;;;;;5005981;28;20080;-76
2022/03/30 11:01:31;;;;;;;6.82;4.45;;;10.00;96.30;;;;;;5007686;28;20172;-76
2022/03/30 11:03:57;;;;;;;5.75;4.13;;;10.30;95.30;;;;;;4998400;28;20025;-75
2022/03/30 11:06:23;;;;;;;5.72;4.13;;;10.50;95.50;;;;;;5008489;28;20526;-75
2022/03/30 11:08:50;;;;;;;4.72;3.83;;;10.70;96.50;;;;;;5009093;28;20485;-76
2022/03/30 11:11:34;;;;;;;5.18;3.20;;;10.90;95.10;;;;;;5010643;28;20094;-76
2022/03/30 11:14:33;;;;;;;3.88;2.70;;;11.00;94.20;;;;;;5009044;28;20443;-76
2022/03/30 11:17:06;;;;;;;3.72;2.20;;;10.90;94.20;;;;;;5009256;28;20516;-76
2022/03/30 11:19:47;;;;;;;3.38;2.38;;;11.00;88.10;;;;;;5012571;28;20489;-75
2022/03/30 11:22:13;;;;;;;3.95;2.20;;;10.90;87.40;;;;;;5013655;28;20044;-75
2022/03/30 11:24:45;;;;;;;2.38;1.80;;;10.90;91.20;;;;;;5004242;28;20037;-76
2022/03/30 11:27:10;;;;;;;2.85;1.50;;;11.10;90.00;;;;;;5008942;28;20407;-75
2022/03/30 11:29:42;;;;;;;2.58;1.35;;;11.20;78.80;;;;;;5007847;28;20124;-75
2022/03/30 11:32:28;;;;;;;2.95;1.80;;;11.10;81.30;;;;;;5005595;28;20077;-75
2022/03/30 11:34:55;;;;;;;2.20;1.55;;;11.10;79.40;;;;;;5009203;28;20134;-76
2022/03/30 11:37:29;;;;;;;2.92;1.48;;;11.00;82.40;;;;;;5019228;28;20410;-75
2022/03/30 11:40:08;;;;;;;2.33;1.33;;;11.10;81.40;;;;;;4996025;28;20502;-76
2022/03/30 11:42:38;;;;;;;3.00;1.30;;;11.20;78.40;;;;;;4992906;28;20470;-75
2022/03/30 11:45:14;;;;;;;1.83;1.10;;;11.30;81.30;;;;;;5012132;28;20069;-75
2022/03/30 11:47:58;;;;;;;1.58;1.08;;;11.40;77.60;;;;;;4995402;28;20048;-75
2022/03/30 11:50:44;;;;;;;3.50;1.25;;;11.30;68.50;;;;;;5016021;28;20068;-75
2022/03/30 11:53:19;;;;;;;3.78;1.70;;;11.00;75.10;;;;;;5013670;28;20041;-76
2022/03/30 11:55:59;;;;;;;1.92;1.10;;;10.60;83.50;;;;;;4995259;28;20030;-75
2022/03/30 11:58:32;;;;;;;2.30;1.40;;;10.40;88.10;;;;;;5028226;28;20072;-75
2022/03/30 12:01:00;;;;;;;3.08;1.40;;;10.20;89.00;;;;;;5021161;28;20045;-75
2022/03/30 12:03:26;;;;;;;4.10;1.60;;;9.90;90.90;;;;;;5011383;28;20506;-75
2022/03/30 12:06:03;;;;;;;2.88;1.48;;;9.70;91.70;;;;;;5000722;28;20210;-76
2022/03/30 12:08:42;;;;;;;4.63;1.70;;;9.60;90.10;;;;;;5002232;28;20040;-75
2022/03/30 12:11:08;;;;;;;2.55;1.48;;;9.40;92.20;;;;;;5009441;28;20076;-76
2022/03/30 12:13:33;;;;;;;3.13;1.50;;;9.40;91.40;;;;;;5009868;28;20438;-75
2022/03/30 12:16:04;;;;;;;3.25;1.70;;;9.30;92.80;;;;;;5011094;28;20071;-76
2022/03/30 12:18:31;;;;;;;3.55;1.50;;;9.40;92.00;;;;;;5005678;28;20038;-75
2022/03/30 12:21:03;;;;;;;1.80;1.35;;;9.40;90.70;;;;;;5001045;28;20037;-75
2022/03/30 12:23:29;;;;;;;3.45;1.50;;;9.30;90.30;;;;;;4991804;28;20066;-76
2022/03/30 12:25:55;;;;;;;4.35;1.55;;;9.30;91.50;;;;;;5003599;28;20116;-75
2022/03/30 12:28:30;;;;;;;3.58;1.70;;;9.40;91.60;;;;;;5003551;28;20045;-75
2022/03/30 12:30:56;;;;;;;4.75;1.80;;;9.30;93.80;;;;;;4993704;28;20041;-75
2022/03/30 12:33:21;;;;;;;4.15;1.52;;;9.30;95.20;;;;;;5013499;28;20041;-76
2022/03/30 12:35:47;;;;;;;3.05;1.73;;;9.40;94.50;;;;;;5013272;28;20488;-75
2022/03/30 12:38:14;;;;;;;3.22;1.40;;;9.50;94.00;;;;;;4995998;28;20120;-75
2022/03/30 12:40:42;;;;;;;3.63;1.40;;;9.60;93.40;;;;;;5011125;28;20044;-75
2022/03/30 12:43:08;;;;;;;3.83;1.40;;;9.60;94.20;;;;;;4997231;28;20038;-75
2022/03/30 12:45:53;;;;;;;3.97;1.88;;;9.60;93.50;;;;;;5015214;28;20045;-76
2022/03/30 12:48:25;;;;;;;3.13;1.30;;;9.70;92.80;;;;;;5015744;28;20044;-76
2022/03/30 12:50:50;;;;;;;4.05;1.60;;;9.80;91.50;;;;;;4999919;28;20040;-76
2022/03/30 12:53:16;;;;;;;3.25;1.52;;;9.80;93.40;;;;;;5011533;28;20041;-76
2022/03/30 12:55:47;;;;;;;3.05;1.35;;;10.10;93.10;;;;;;5014245;28;20477;-76
2022/03/30 12:58:23;;;;;;;1.35;1.15;;;10.60;89.50;;;;;;5010858;28;20389;-76